LA HONDA (LAH)

Elevation: 425' · SAN GREGORIO CR basin · Operator: CAL FIRE

Query executed Wednesday at 5:40:45   clock

Provisional data, subject to change.
Select a sensor type for a plot of data.

Earlier

Date   /   Time   RAIN     TEMP     REL HUM     FUEL MS     FUEL TP     WIND SP     WIND DR     PEAK WS     PEAK WD     SOLAR R     BAT VOL    
(PDT)INCHES   DEG F   %   %   DEG F   MPH   DEG   MPH   DEG   W/M^2   VOLTS  
06/28/2016 05:00 33.95 47 99 15 44 0 219 4 96 0.00 12.8
06/28/2016 06:00 33.95 46 100 18 44 1 79 2 237 2.00 12.8
06/28/2016 07:00 33.95 48 100 19 49 0 13 1 294 47.00 13.0
06/28/2016 08:00 33.95 52 98 20 53 2 234 5 226 228.00 13.6
06/28/2016 09:00 33.95 60 82 19 62 2 275 5 245 429.00 13.8
06/28/2016 10:00 33.95 67 67 16 72 3 250 6 216 604.00 13.7
06/28/2016 11:00 33.95 72 57 13 83 3 249 6 241 756.00 13.6
06/28/2016 12:00 33.95 74 52 10 93 4 252 7 212 870.00 13.5
06/28/2016 13:00 33.95 77 49 9 100 4 257 9 225 935.00 13.5
06/28/2016 14:00 33.95 80 44 9 107 4 246 8 234 947.00 13.4
06/28/2016 15:00 33.95 79 45 7 108 3 262 8 224 910.00 13.4
06/28/2016 16:00 33.95 78 47 7 103 3 261 7 250 818.00 13.5
06/28/2016 17:00 33.95 74 48 6 100 4 254 7 243 677.00 13.5
06/28/2016 18:00 33.95 70 52 6 77 3 265 7 237 454.00 13.9
06/28/2016 19:00 33.95 65 63 6 70 3 246 7 223 98.00 13.5
06/28/2016 20:00 33.95 59 73 6 57 1 243 6 235 35.00 13.3
06/28/2016 21:00 33.95 53 87 6 51 1 284 3 235 6.00 13.2
06/28/2016 22:00 33.95 50 95 7 47 1 268 2 327 0.00 13.1
06/28/2016 23:00 33.95 49 99 7 47 1 12 2 230 0.00 13.0
06/29/2016 00:00 33.95 49 100 9 49 0 345 1 196 0.00 13.0
06/29/2016 01:00 33.95 48 100 10 49 1 16 2 5 0.00 12.9
06/29/2016 02:00 33.95 48 100 12 49 1 120 2 313 0.00 12.9
06/29/2016 03:00 33.95 48 100 13 49 1 235 4 224 0.00 12.9
06/29/2016 04:00 33.95 47 100 15 49 1 243 3 5 0.00 12.9
06/29/2016 05:00 33.95 46 100 17 47 1 279 4 247 0.00 12.9

Later | Latest

Warning! This data is preliminary and subject to revision.

Show LAH Map | 24 Hours LAH Data | Plot all LAH Sensors | Daily LAH Data | LAH Info